Time;durP1;ratioP1;P1;durP2;ratioP2;P2;SDS_P1;SDS_P2;PMS_P1;PMS_P2;Temp;Humidity;BMP_temperature;BMP_pressure;BME280_temperature;BME280_humidity;BME280_pressure;Samples;Min_cycle;Max_cycle;Signal;HPM_P1;HPM_P2
2023/02/02 00:01:50;;;;;;;;;12.50;10.00;;;;;;;;117968;1179;25059;-64
2023/02/02 00:04:23;;;;;;;;;11.00;10.00;;;;;;;;117960;1178;25275;-62
2023/02/02 00:06:52;;;;;;;;;12.50;11.75;;;;;;;;117941;1187;26230;-62
2023/02/02 00:09:21;;;;;;;;;12.00;8.33;;;;;;;;117859;1180;25652;-65
2023/02/02 00:11:49;;;;;;;;;10.50;10.00;;;;;;;;118116;1190;24806;-68
2023/02/02 00:14:18;;;;;;;;;12.00;10.67;;;;;;;;118156;1188;25049;-66
2023/02/02 00:16:49;;;;;;;;;11.50;9.50;;;;;;;;118121;1177;25505;-65
2023/02/02 00:19:29;;;;;;;;;9.00;8.00;;;;;;;;117893;1190;24880;-65
2023/02/02 00:21:57;;;;;;;;;10.00;9.00;;;;;;;;117980;1190;25514;-64
2023/02/02 00:24:26;;;;;;;;;11.33;9.00;;;;;;;;117903;1177;25162;-64
2023/02/02 00:26:57;;;;;;;;;15.25;10.00;;;;;;;;118143;1184;25406;-65
2023/02/02 00:29:28;;;;;;;;;11.00;8.33;;;;;;;;118126;1190;24869;-67
2023/02/02 00:31:56;;;;;;;;;12.25;9.75;;;;;;;;118105;1190;24975;-68
2023/02/02 00:34:25;;;;;;;;;10.00;7.50;;;;;;;;118150;1190;25320;-65
2023/02/02 00:36:53;;;;;;;;;8.00;8.00;;;;;;;;118128;1190;25657;-63
2023/02/02 00:39:26;;;;;;;;;10.00;9.00;;;;;;;;118121;1177;25648;-63
2023/02/02 00:41:55;;;;;;;;;9.00;7.00;;;;;;;;118087;1190;25534;-63
2023/02/02 00:47:10;;;;;;;;;10.75;8.75;;;;;;;;117952;1190;24872;-64
2023/02/02 00:49:39;;;;;;;;;10.67;7.67;;;;;;;;117934;1178;25308;-64
2023/02/02 00:52:07;;;;;;;;;8.50;8.50;;;;;;;;117925;1190;24784;-64
2023/02/02 00:54:36;;;;;;;;;5.33;5.33;;;;;;;;117979;1177;24898;-63
2023/02/02 00:57:05;;;;;;;;;11.00;9.00;;;;;;;;117959;1180;24939;-64
2023/02/02 00:59:33;;;;;;;;;10.00;7.33;;;;;;;;117923;1177;25588;-63
2023/02/02 01:02:02;;;;;;;;;14.00;9.67;;;;;;;;118068;1178;25470;-63
2023/02/02 01:04:31;;;;;;;;;8.33;6.33;;;;;;;;118112;1178;24873;-64
2023/02/02 01:06:59;;;;;;;;;10.33;7.67;;;;;;;;117880;1179;25247;-64
2023/02/02 01:09:28;;;;;;;;;10.75;8.50;;;;;;;;118103;1177;24884;-63
2023/02/02 01:11:57;;;;;;;;;9.00;8.00;;;;;;;;117999;1181;25458;-63
2023/02/02 01:14:25;;;;;;;;;10.00;9.00;;;;;;;;118129;1177;25319;-62
2023/02/02 01:16:54;;;;;;;;;8.67;6.67;;;;;;;;118148;1176;24864;-62
2023/02/02 01:19:22;;;;;;;;;8.00;6.67;;;;;;;;118131;1178;25257;-62
2023/02/02 01:21:51;;;;;;;;;5.50;5.50;;;;;;;;117973;1177;25184;-62
2023/02/02 01:24:19;;;;;;;;;10.00;8.25;;;;;;;;118108;1190;25352;-63
2023/02/02 01:26:47;;;;;;;;;8.00;7.00;;;;;;;;118089;1176;25286;-62
2023/02/02 01:29:16;;;;;;;;;12.00;6.00;;;;;;;;117997;1190;24957;-62
2023/02/02 01:31:45;;;;;;;;;12.00;9.25;;;;;;;;118132;1184;24969;-60
2023/02/02 01:34:13;;;;;;;;;4.33;2.67;;;;;;;;118173;1177;24762;-61
2023/02/02 01:36:42;;;;;;;;;7.00;6.67;;;;;;;;117894;1183;24752;-63
2023/02/02 01:39:10;;;;;;;;;8.00;7.50;;;;;;;;118094;1178;25517;-62
2023/02/02 01:41:40;;;;;;;;;7.00;7.00;;;;;;;;118109;1177;25679;-63
2023/02/02 01:44:46;;;;;;;;;9.67;9.67;;;;;;;;118139;1177;25488;-63
2023/02/02 01:47:15;;;;;;;;;8.00;8.00;;;;;;;;118139;1177;25677;-63
2023/02/02 01:49:44;;;;;;;;;10.00;9.00;;;;;;;;117923;1189;24718;-64
2023/02/02 01:52:14;;;;;;;;;5.33;4.67;;;;;;;;117898;1180;25358;-65
2023/02/02 01:54:47;;;;;;;;;10.00;10.00;;;;;;;;118102;1188;25654;-65
2023/02/02 01:57:25;;;;;;;;;8.50;7.00;;;;;;;;118123;1179;25300;-63
2023/02/02 01:59:55;;;;;;;;;7.33;6.00;;;;;;;;118144;1190;25661;-69
2023/02/02 02:02:24;;;;;;;;;7.50;6.50;;;;;;;;118152;1177;25428;-63
2023/02/02 02:04:54;;;;;;;;;10.00;8.00;;;;;;;;118115;1186;24907;-62
2023/02/02 02:07:23;;;;;;;;;9.33;7.00;;;;;;;;117946;1187;25216;-63
2023/02/02 02:09:51;;;;;;;;;9.33;9.00;;;;;;;;118136;1177;25568;-63
2023/02/02 02:12:20;;;;;;;;;8.00;6.50;;;;;;;;118139;1177;24849;-62
2023/02/02 02:17:51;;;;;;;;;8.75;7.00;;;;;;;;118141;1187;25211;-64
2023/02/02 02:27:02;;;;;;;;;8.25;6.25;;;;;;;;118130;1184;25200;-64
2023/02/02 02:29:58;;;;;;;;;10.25;7.25;;;;;;;;118101;1184;25513;-63
2023/02/02 02:32:35;;;;;;;;;6.00;6.00;;;;;;;;118128;1177;25284;-64
2023/02/02 02:35:34;;;;;;;;;11.00;7.00;;;;;;;;118130;1177;25063;-62
2023/02/02 02:38:15;;;;;;;;;6.67;6.00;;;;;;;;118164;1189;25110;-62
2023/02/02 02:40:46;;;;;;;;;7.33;5.00;;;;;;;;118157;1184;25422;-63
2023/02/02 02:43:22;;;;;;;;;8.50;6.50;;;;;;;;117971;1183;24814;-62
2023/02/02 02:45:50;;;;;;;;;6.33;6.33;;;;;;;;117964;1190;25753;-63
2023/02/02 02:48:19;;;;;;;;;8.00;7.00;;;;;;;;117967;1190;25433;-65
2023/02/02 02:50:47;;;;;;;;;10.25;9.50;;;;;;;;118102;1177;25051;-64
2023/02/02 02:53:22;;;;;;;;;6.75;6.75;;;;;;;;118168;1177;25050;-64
2023/02/02 02:56:18;;;;;;;;;8.25;8.00;;;;;;;;117973;1177;25387;-63
2023/02/02 02:58:48;;;;;;;;;8.00;8.00;;;;;;;;118143;1177;24831;-62
2023/02/02 03:01:20;;;;;;;;;8.75;6.75;;;;;;;;118062;1184;25433;-63
2023/02/02 03:04:13;;;;;;;;;8.50;7.00;;;;;;;;118107;1190;25012;-65
2023/02/02 03:06:52;;;;;;;;;7.33;6.33;;;;;;;;118105;1177;25690;-63
2023/02/02 03:09:23;;;;;;;;;8.25;6.50;;;;;;;;118130;1177;24886;-62
2023/02/02 03:11:53;;;;;;;;;7.00;5.33;;;;;;;;118122;1190;25309;-63
2023/02/02 03:14:21;;;;;;;;;5.33;5.33;;;;;;;;118117;1190;26153;-62
2023/02/02 03:16:51;;;;;;;;;9.33;8.33;;;;;;;;118105;1183;25084;-62
2023/02/02 03:19:20;;;;;;;;;8.33;6.33;;;;;;;;118101;1190;25157;-64
2023/02/02 03:21:48;;;;;;;;;8.00;7.00;;;;;;;;118134;1184;24898;-63
2023/02/02 03:24:17;;;;;;;;;8.25;8.25;;;;;;;;118099;1176;25552;-63
2023/02/02 03:26:45;;;;;;;;;11.00;8.00;;;;;;;;118111;1190;25462;-62
2023/02/02 03:29:15;;;;;;;;;9.00;6.50;;;;;;;;118118;1181;25633;-63
2023/02/02 03:31:45;;;;;;;;;9.50;8.25;;;;;;;;118134;1177;24795;-64
2023/02/02 03:34:13;;;;;;;;;7.33;6.00;;;;;;;;117979;1180;25518;-64
2023/02/02 03:36:42;;;;;;;;;4.67;4.67;;;;;;;;118116;1190;24803;-63
2023/02/02 03:39:10;;;;;;;;;9.00;8.33;;;;;;;;118138;1190;25371;-63
2023/02/02 03:41:39;;;;;;;;;5.00;5.00;;;;;;;;117964;1181;24851;-63
2023/02/02 03:44:07;;;;;;;;;9.67;7.33;;;;;;;;118116;1176;24912;-64
2023/02/02 03:46:36;;;;;;;;;7.75;7.25;;;;;;;;118120;1190;25352;-63
2023/02/02 03:49:04;;;;;;;;;5.67;5.67;;;;;;;;118115;1176;25654;-64
2023/02/02 03:51:33;;;;;;;;;5.00;5.00;;;;;;;;118125;1177;25892;-64
2023/02/02 03:54:01;;;;;;;;;10.25;7.00;;;;;;;;118124;1177;25548;-64
2023/02/02 03:56:30;;;;;;;;;6.00;6.00;;;;;;;;118136;1176;25824;-64
2023/02/02 03:58:58;;;;;;;;;10.50;9.00;;;;;;;;118140;1177;25625;-63
2023/02/02 04:01:28;;;;;;;;;11.33;6.67;;;;;;;;118124;1177;25460;-66
2023/02/02 04:03:57;;;;;;;;;6.00;6.00;;;;;;;;117901;1188;24980;-62
2023/02/02 04:06:26;;;;;;;;;8.00;7.75;;;;;;;;118151;1176;25052;-62
2023/02/02 04:08:54;;;;;;;;;8.75;6.25;;;;;;;;118131;1177;25361;-63
2023/02/02 04:11:22;;;;;;;;;8.00;8.00;;;;;;;;118125;1190;25077;-62
2023/02/02 04:13:51;;;;;;;;;7.75;7.75;;;;;;;;118100;1177;24893;-61
2023/02/02 04:16:19;;;;;;;;;8.33;7.00;;;;;;;;118125;1180;25516;-62
2023/02/02 04:18:48;;;;;;;;;10.00;8.00;;;;;;;;118086;1190;24920;-62
2023/02/02 04:21:16;;;;;;;;;6.25;6.25;;;;;;;;118112;1177;25444;-62
2023/02/02 04:23:45;;;;;;;;;8.00;7.00;;;;;;;;118091;1176;25233;-62
2023/02/02 04:26:14;;;;;;;;;7.00;6.00;;;;;;;;118136;1177;25497;-62
2023/02/02 04:28:42;;;;;;;;;6.33;5.67;;;;;;;;117952;1181;24739;-62
2023/02/02 04:31:10;;;;;;;;;11.50;8.50;;;;;;;;118093;1177;25458;-63
2023/02/02 04:33:39;;;;;;;;;6.67;6.33;;;;;;;;117917;1179;24807;-62
2023/02/02 04:36:09;;;;;;;;;8.25;5.75;;;;;;;;118115;1188;24910;-63
2023/02/02 04:38:37;;;;;;;;;7.00;7.00;;;;;;;;117993;1180;25633;-62
2023/02/02 04:41:08;;;;;;;;;5.67;4.67;;;;;;;;118109;1176;25107;-62
2023/02/02 04:43:37;;;;;;;;;7.33;6.67;;;;;;;;118116;1176;25195;-63
2023/02/02 04:46:06;;;;;;;;;6.00;6.00;;;;;;;;117933;1191;24855;-62
2023/02/02 04:48:34;;;;;;;;;5.00;4.00;;;;;;;;117961;1177;25266;-63
2023/02/02 04:51:06;;;;;;;;;7.00;7.00;;;;;;;;117919;1177;24855;-63
2023/02/02 04:53:34;;;;;;;;;6.00;6.00;;;;;;;;117941;1177;24840;-62
2023/02/02 04:56:16;;;;;;;;;6.25;5.50;;;;;;;;117944;1191;24984;-62
2023/02/02 04:58:44;;;;;;;;;5.67;4.00;;;;;;;;117903;1190;25208;-63
2023/02/02 05:01:18;;;;;;;;;6.00;6.00;;;;;;;;117968;1190;24786;-62
2023/02/02 05:03:47;;;;;;;;;8.33;5.00;;;;;;;;118131;1184;25295;-63
2023/02/02 05:06:16;;;;;;;;;6.67;6.00;;;;;;;;118136;1176;26421;-62
2023/02/02 05:08:47;;;;;;;;;6.00;5.00;;;;;;;;118140;1177;25632;-63
2023/02/02 05:11:18;;;;;;;;;6.75;5.50;;;;;;;;118081;1187;24893;-63
2023/02/02 05:13:52;;;;;;;;;7.00;7.00;;;;;;;;117918;1180;24958;-63
2023/02/02 05:16:21;;;;;;;;;7.00;6.00;;;;;;;;117860;1180;25495;-61
2023/02/02 05:18:52;;;;;;;;;7.25;7.25;;;;;;;;117923;1190;24957;-63
2023/02/02 05:21:21;;;;;;;;;5.00;4.50;;;;;;;;117851;1180;25154;-66
2023/02/02 05:23:49;;;;;;;;;5.00;5.00;;;;;;;;117858;1177;25304;-65
2023/02/02 05:26:23;;;;;;;;;6.67;6.00;;;;;;;;117939;1178;26019;-63
2023/02/02 05:28:52;;;;;;;;;10.00;8.00;;;;;;;;117954;1190;25149;-63
2023/02/02 05:31:21;;;;;;;;;5.75;5.75;;;;;;;;118047;1177;25011;-68
2023/02/02 05:33:49;;;;;;;;;6.67;6.33;;;;;;;;118142;1176;25445;-63
2023/02/02 05:36:18;;;;;;;;;8.00;5.50;;;;;;;;118111;1176;25339;-63
2023/02/02 05:38:46;;;;;;;;;6.50;6.50;;;;;;;;118058;1189;24949;-66
2023/02/02 05:41:15;;;;;;;;;7.67;6.00;;;;;;;;118038;1176;25318;-66
2023/02/02 05:43:43;;;;;;;;;6.00;6.00;;;;;;;;117869;1177;24758;-64
2023/02/02 05:46:12;;;;;;;;;5.75;5.00;;;;;;;;117973;1182;24762;-66
2023/02/02 05:48:41;;;;;;;;;9.67;8.00;;;;;;;;117944;1183;25216;-65
2023/02/02 05:51:20;;;;;;;;;6.75;6.75;;;;;;;;117918;1178;25676;-67
2023/02/02 05:53:49;;;;;;;;;9.00;9.00;;;;;;;;118112;1177;25625;-68
2023/02/02 05:56:17;;;;;;;;;7.67;6.67;;;;;;;;118160;1182;25558;-62
2023/02/02 05:58:48;;;;;;;;;7.50;7.50;;;;;;;;117968;1190;25191;-63
2023/02/02 06:01:17;;;;;;;;;7.33;7.33;;;;;;;;118110;1177;25563;-63
2023/02/02 06:03:46;;;;;;;;;6.50;6.00;;;;;;;;118184;1190;25755;-62
2023/02/02 06:06:15;;;;;;;;;10.00;7.50;;;;;;;;118120;1177;25363;-63
2023/02/02 06:08:43;;;;;;;;;6.50;5.00;;;;;;;;117977;1186;25091;-62
2023/02/02 06:11:15;;;;;;;;;8.25;6.00;;;;;;;;118131;1177;25438;-63
2023/02/02 06:13:43;;;;;;;;;8.00;7.00;;;;;;;;118113;1187;25605;-65
2023/02/02 06:16:13;;;;;;;;;8.00;4.33;;;;;;;;118126;1190;25009;-62
2023/02/02 06:18:42;;;;;;;;;7.00;5.33;;;;;;;;118136;1177;24958;-61
2023/02/02 06:21:11;;;;;;;;;6.00;6.00;;;;;;;;117929;1179;24847;-63
2023/02/02 06:23:44;;;;;;;;;9.33;8.00;;;;;;;;117965;1186;24823;-62
2023/02/02 06:26:14;;;;;;;;;8.00;4.00;;;;;;;;117897;1191;25669;-62
2023/02/02 06:28:47;;;;;;;;;12.00;9.00;;;;;;;;117929;1191;25325;-63
2023/02/02 06:31:18;;;;;;;;;6.50;5.00;;;;;;;;117931;1177;25643;-63
2023/02/02 06:33:57;;;;;;;;;9.67;9.00;;;;;;;;117979;1183;25422;-62
2023/02/02 06:36:27;;;;;;;;;6.00;6.00;;;;;;;;118000;1186;25483;-63
2023/02/02 06:38:56;;;;;;;;;8.00;7.00;;;;;;;;118024;1177;24882;-62
2023/02/02 06:41:25;;;;;;;;;7.00;7.00;;;;;;;;117900;1178;24935;-62
2023/02/02 06:43:53;;;;;;;;;7.75;5.25;;;;;;;;118177;1178;25646;-63
2023/02/02 06:46:22;;;;;;;;;6.00;6.00;;;;;;;;118085;1178;24985;-62
2023/02/02 06:48:50;;;;;;;;;8.00;7.00;;;;;;;;118060;1189;25467;-62
2023/02/02 06:51:19;;;;;;;;;9.25;8.00;;;;;;;;118080;1178;25150;-62
2023/02/02 06:53:48;;;;;;;;;15.75;11.00;;;;;;;;117919;1186;25039;-60
2023/02/02 06:56:17;;;;;;;;;9.00;5.67;;;;;;;;118014;1177;25213;-61
2023/02/02 06:58:45;;;;;;;;;8.33;7.67;;;;;;;;118048;1177;25328;-62
2023/02/02 07:01:14;;;;;;;;;17.00;13.67;;;;;;;;118041;1190;25558;-61
2023/02/02 07:03:48;;;;;;;;;14.00;13.00;;;;;;;;117861;1180;24811;-61
2023/02/02 07:06:18;;;;;;;;;13.00;12.00;;;;;;;;117927;1180;24882;-63
2023/02/02 07:08:47;;;;;;;;;15.00;14.67;;;;;;;;117949;1176;25695;-59
2023/02/02 07:11:31;;;;;;;;;19.00;16.00;;;;;;;;117962;1177;25919;-61
2023/02/02 07:14:03;;;;;;;;;16.25;15.00;;;;;;;;117944;1180;25609;-61
2023/02/02 07:16:31;;;;;;;;;17.67;17.67;;;;;;;;117876;1190;24850;-60
2023/02/02 07:19:00;;;;;;;;;23.50;16.50;;;;;;;;117890;1179;24946;-60
2023/02/02 07:21:34;;;;;;;;;22.00;17.00;;;;;;;;118013;1177;24964;-60
2023/02/02 07:24:05;;;;;;;;;19.67;17.00;;;;;;;;118021;1190;24949;-60
2023/02/02 07:26:35;;;;;;;;;15.50;15.00;;;;;;;;118061;1176;25452;-61
2023/02/02 07:29:04;;;;;;;;;21.00;14.75;;;;;;;;117966;1177;24886;-62
2023/02/02 07:31:32;;;;;;;;;22.00;17.00;;;;;;;;118058;1190;25531;-63
2023/02/02 07:34:04;;;;;;;;;25.00;23.33;;;;;;;;118029;1179;24729;-60
2023/02/02 07:36:32;;;;;;;;;24.50;21.50;;;;;;;;117976;1176;24814;-60
2023/02/02 07:39:03;;;;;;;;;21.00;18.25;;;;;;;;117940;1177;24979;-58
2023/02/02 07:41:36;;;;;;;;;25.50;21.00;;;;;;;;118067;1186;25510;-60
2023/02/02 07:44:06;;;;;;;;;25.33;20.67;;;;;;;;117853;1181;25615;-58
2023/02/02 07:46:35;;;;;;;;;24.67;21.00;;;;;;;;118010;1177;25032;-60
2023/02/02 07:49:05;;;;;;;;;25.00;21.00;;;;;;;;118046;1176;25126;-60
2023/02/02 07:51:34;;;;;;;;;20.50;13.00;;;;;;;;118105;1183;25126;-62
2023/02/02 07:54:05;;;;;;;;;14.00;13.00;;;;;;;;118170;1189;24838;-61
2023/02/02 07:56:34;;;;;;;;;16.00;12.67;;;;;;;;118089;1178;24759;-61
2023/02/02 07:59:03;;;;;;;;;16.33;14.33;;;;;;;;118070;1176;25188;-61
2023/02/02 08:01:31;;;;;;;;;14.00;12.00;;;;;;;;118124;1177;25290;-65
2023/02/02 08:04:02;;;;;;;;;13.25;11.00;;;;;;;;117845;1190;25568;-61
2023/02/02 08:06:38;;;;;;;;;16.50;16.50;;;;;;;;117872;1179;24743;-60
2023/02/02 08:09:08;;;;;;;;;16.67;16.33;;;;;;;;118042;1177;25619;-62
2023/02/02 08:11:37;;;;;;;;;14.33;14.33;;;;;;;;117816;1190;25053;-62
2023/02/02 08:14:06;;;;;;;;;17.00;15.00;;;;;;;;118002;1183;25676;-61
2023/02/02 08:16:35;;;;;;;;;15.00;10.00;;;;;;;;118102;1177;24854;-59
2023/02/02 08:19:03;;;;;;;;;19.67;15.33;;;;;;;;117990;1178;25542;-64
2023/02/02 08:21:33;;;;;;;;;17.00;15.25;;;;;;;;117907;1184;25506;-60
2023/02/02 08:24:03;;;;;;;;;20.00;14.50;;;;;;;;117918;1180;25325;-59
2023/02/02 08:26:32;;;;;;;;;18.33;15.67;;;;;;;;117947;1177;24831;-60
2023/02/02 08:29:04;;;;;;;;;18.00;15.67;;;;;;;;118012;1176;25569;-61
2023/02/02 08:31:40;;;;;;;;;18.75;16.75;;;;;;;;117983;1187;25024;-60
2023/02/02 08:34:10;;;;;;;;;19.00;13.75;;;;;;;;117876;1183;24824;-61
2023/02/02 08:36:40;;;;;;;;;18.50;17.75;;;;;;;;117905;1179;25070;-62
2023/02/02 08:39:11;;;;;;;;;15.75;15.00;;;;;;;;117910;1180;25019;-62
2023/02/02 08:41:39;;;;;;;;;21.00;18.00;;;;;;;;118004;1190;25172;-60
2023/02/02 08:44:09;;;;;;;;;19.50;18.00;;;;;;;;118016;1177;24889;-59
2023/02/02 08:46:39;;;;;;;;;15.50;13.00;;;;;;;;118048;1177;25301;-61
2023/02/02 08:49:11;;;;;;;;;16.00;12.00;;;;;;;;118157;1189;25291;-62
2023/02/02 08:51:40;;;;;;;;;12.00;12.00;;;;;;;;118138;1189;25328;-61
2023/02/02 08:54:09;;;;;;;;;11.00;8.00;;;;;;;;117993;1179;25638;-61
2023/02/02 08:56:37;;;;;;;;;12.00;10.33;;;;;;;;118071;1189;25429;-62
2023/02/02 08:59:06;;;;;;;;;10.00;10.00;;;;;;;;118018;1178;25282;-59
2023/02/02 09:01:35;;;;;;;;;14.00;11.33;;;;;;;;117971;1183;24829;-59
2023/02/02 09:04:10;;;;;;;;;13.33;12.00;;;;;;;;117928;1185;24983;-58
2023/02/02 09:06:39;;;;;;;;;12.50;11.00;;;;;;;;117878;1190;24766;-59
2023/02/02 09:09:12;;;;;;;;;16.50;14.50;;;;;;;;118048;1177;25319;-58
2023/02/02 09:11:41;;;;;;;;;7.50;7.50;;;;;;;;117921;1177;25380;-58
2023/02/02 09:14:12;;;;;;;;;13.25;12.50;;;;;;;;117971;1190;25149;-60
2023/02/02 09:16:41;;;;;;;;;14.50;12.00;;;;;;;;118085;1190;25363;-60
2023/02/02 09:19:10;;;;;;;;;11.50;10.50;;;;;;;;118089;1189;25062;-61
2023/02/02 09:21:39;;;;;;;;;16.25;13.00;;;;;;;;118013;1187;25285;-64
2023/02/02 09:24:12;;;;;;;;;13.00;11.25;;;;;;;;118185;1180;25007;-59
2023/02/02 09:26:42;;;;;;;;;12.67;11.33;;;;;;;;120084;1182;25767;-59
2023/02/02 09:29:14;;;;;;;;;12.67;12.00;;;;;;;;120035;1190;25716;-58
2023/02/02 09:31:42;;;;;;;;;14.50;13.50;;;;;;;;119996;1177;25348;-58
2023/02/02 09:34:12;;;;;;;;;10.67;10.67;;;;;;;;120019;1189;25098;-58
2023/02/02 09:36:41;;;;;;;;;14.50;13.00;;;;;;;;119999;1189;24948;-57
2023/02/02 09:39:15;;;;;;;;;14.75;12.75;;;;;;;;119956;1190;25351;-58
2023/02/02 09:41:51;;;;;;;;;13.67;10.67;;;;;;;;120084;1188;25091;-58
2023/02/02 09:44:25;;;;;;;;;12.75;11.25;;;;;;;;120195;1188;25245;-58
2023/02/02 09:47:22;;;;;;;;;13.25;11.00;;;;;;;;120153;1189;25841;-59
2023/02/02 09:50:03;;;;;;;;;15.25;12.00;;;;;;;;120078;1180;26411;-58
2023/02/02 09:52:53;;;;;;;;;13.50;13.00;;;;;;;;120065;1190;25082;-59
2023/02/02 09:55:33;;;;;;;;;15.50;13.00;;;;;;;;119994;1190;24769;-58
2023/02/02 09:58:10;;;;;;;;;10.00;10.00;;;;;;;;119906;1190;25413;-59
2023/02/02 10:00:45;;;;;;;;;14.75;13.25;;;;;;;;120097;1182;25649;-58
2023/02/02 10:03:44;;;;;;;;;9.00;9.00;;;;;;;;119941;1189;24860;-59
2023/02/02 10:06:25;;;;;;;;;12.75;11.50;;;;;;;;119711;1190;25666;-61
2023/02/02 10:09:05;;;;;;;;;14.33;10.67;;;;;;;;119927;1190;25585;-59
2023/02/02 10:11:52;;;;;;;;;20.00;14.00;;;;;;;;119903;1190;25529;-62
2023/02/02 10:14:41;;;;;;;;;15.00;13.50;;;;;;;;120037;1186;25054;-61
2023/02/02 10:17:40;;;;;;;;;13.00;9.50;;;;;;;;119852;1190;24913;-61
2023/02/02 10:20:49;;;;;;;;;12.25;10.50;;;;;;;;120030;1190;25372;-60
2023/02/02 10:23:36;;;;;;;;;12.75;11.50;;;;;;;;119780;1187;25049;-60
2023/02/02 10:26:43;;;;;;;;;8.67;6.00;;;;;;;;120060;1186;25623;-59
2023/02/02 10:29:16;;;;;;;;;12.67;9.00;;;;;;;;119913;1190;25021;-58
2023/02/02 10:32:05;;;;;;;;;15.67;11.33;;;;;;;;120050;1183;26049;-62
2023/02/02 10:34:55;;;;;;;;;11.25;11.25;;;;;;;;120027;1186;24898;-61
2023/02/02 10:38:02;;;;;;;;;15.75;11.25;;;;;;;;120125;1187;24873;-59
2023/02/02 10:40:58;;;;;;;;;14.00;11.00;;;;;;;;119895;1190;25421;-59
2023/02/02 10:43:53;;;;;;;;;11.33;10.33;;;;;;;;120046;1189;25649;-59
2023/02/02 10:46:25;;;;;;;;;14.50;9.50;;;;;;;;119931;1190;24894;-59
2023/02/02 10:49:05;;;;;;;;;16.75;11.00;;;;;;;;119904;1190;24797;-59
2023/02/02 10:51:34;;;;;;;;;11.50;11.25;;;;;;;;119926;1190;24712;-59
2023/02/02 10:54:14;;;;;;;;;10.50;9.75;;;;;;;;120019;1189;25307;-61
2023/02/02 10:56:47;;;;;;;;;15.00;11.50;;;;;;;;120125;1188;25295;-58
2023/02/02 10:59:21;;;;;;;;;11.67;10.33;;;;;;;;120130;1189;25445;-61
2023/02/02 11:01:50;;;;;;;;;13.25;10.50;;;;;;;;120155;1182;25365;-58
2023/02/02 11:07:06;;;;;;;;;16.00;12.25;;;;;;;;119979;1190;25000;-59
2023/02/02 11:09:38;;;;;;;;;13.25;12.75;;;;;;;;119973;1179;25733;-59
2023/02/02 11:12:29;;;;;;;;;13.33;10.67;;;;;;;;119977;1183;25175;-61
2023/02/02 11:15:05;;;;;;;;;12.67;11.00;;;;;;;;120079;1177;25543;-60
2023/02/02 11:17:33;;;;;;;;;9.67;9.67;;;;;;;;120038;1190;25065;-58
2023/02/02 11:20:29;;;;;;;;;19.67;15.00;;;;;;;;120078;1180;25298;-60
2023/02/02 11:23:00;;;;;;;;;12.00;11.00;;;;;;;;120073;1190;24932;-64
2023/02/02 11:25:32;;;;;;;;;11.67;11.67;;;;;;;;119881;1179;25386;-67
2023/02/02 11:28:12;;;;;;;;;14.00;14.00;;;;;;;;119902;1190;25276;-64
2023/02/02 11:30:40;;;;;;;;;13.25;10.50;;;;;;;;120098;1187;24927;-58
2023/02/02 11:33:40;;;;;;;;;17.67;13.67;;;;;;;;119898;1182;24725;-58
2023/02/02 11:36:20;;;;;;;;;15.00;11.75;;;;;;;;120135;1189;24928;-60
2023/02/02 11:39:26;;;;;;;;;13.33;13.00;;;;;;;;119930;1190;25399;-59
2023/02/02 11:42:04;;;;;;;;;13.00;11.67;;;;;;;;120041;1190;24937;-61
2023/02/02 11:44:34;;;;;;;;;16.50;12.50;;;;;;;;119995;1189;24720;-61
2023/02/02 11:47:04;;;;;;;;;13.67;9.67;;;;;;;;120067;1190;25509;-59
2023/02/02 11:49:38;;;;;;;;;17.50;13.00;;;;;;;;119878;1190;25235;-60
2023/02/02 11:52:15;;;;;;;;;12.75;11.25;;;;;;;;119911;1179;25548;-58
2023/02/02 11:54:51;;;;;;;;;12.33;9.00;;;;;;;;119997;1189;25160;-59
2023/02/02 11:57:22;;;;;;;;;12.00;11.00;;;;;;;;120150;1190;25028;-59
2023/02/02 12:00:07;;;;;;;;;8.00;8.00;;;;;;;;119925;1182;25318;-59
2023/02/02 12:02:35;;;;;;;;;13.33;10.00;;;;;;;;119917;1187;25214;-59
2023/02/02 12:05:32;;;;;;;;;13.50;13.50;;;;;;;;119898;1182;24928;-59
2023/02/02 12:08:01;;;;;;;;;14.33;9.00;;;;;;;;119906;1190;24854;-59
2023/02/02 12:10:54;;;;;;;;;15.00;13.67;;;;;;;;120013;1189;25281;-60
2023/02/02 12:13:32;;;;;;;;;15.50;12.00;;;;;;;;120026;1190;25448;-60
2023/02/02 12:16:33;;;;;;;;;13.00;11.00;;;;;;;;119911;1190;25143;-59
2023/02/02 12:19:29;;;;;;;;;14.00;12.00;;;;;;;;119736;1189;24951;-60
2023/02/02 12:22:08;;;;;;;;;12.00;9.67;;;;;;;;119905;1182;24912;-58
2023/02/02 12:25:08;;;;;;;;;11.00;9.67;;;;;;;;119935;1190;25314;-60
2023/02/02 12:27:47;;;;;;;;;11.25;8.00;;;;;;;;119921;1190;24759;-58
2023/02/02 12:30:45;;;;;;;;;11.00;7.75;;;;;;;;119746;1191;25015;-58
2023/02/02 12:33:28;;;;;;;;;6.67;5.00;;;;;;;;119910;1182;25360;-60
2023/02/02 12:36:21;;;;;;;;;9.25;9.00;;;;;;;;119870;1179;25024;-59
2023/02/02 12:39:04;;;;;;;;;13.00;10.00;;;;;;;;119902;1187;25425;-61
2023/02/02 12:42:00;;;;;;;;;10.00;8.00;;;;;;;;119903;1187;25238;-62
2023/02/02 12:44:52;;;;;;;;;11.75;10.75;;;;;;;;119890;1190;25335;-61
2023/02/02 12:47:28;;;;;;;;;11.00;10.00;;;;;;;;119842;1190;25175;-61
2023/02/02 12:50:22;;;;;;;;;8.25;8.00;;;;;;;;119917;1190;24965;-60
2023/02/02 12:53:16;;;;;;;;;11.00;8.50;;;;;;;;119938;1190;25356;-62
2023/02/02 12:56:12;;;;;;;;;13.75;10.50;;;;;;;;119934;1182;25120;-60
2023/02/02 12:58:43;;;;;;;;;7.75;7.75;;;;;;;;119931;1190;25248;-60
2023/02/02 13:01:22;;;;;;;;;11.33;10.00;;;;;;;;119901;1190;25523;-58
2023/02/02 13:04:10;;;;;;;;;9.67;8.67;;;;;;;;120148;1189;25444;-60
2023/02/02 13:07:20;;;;;;;;;12.33;11.33;;;;;;;;119968;1187;25270;-60
2023/02/02 13:10:07;;;;;;;;;11.00;7.50;;;;;;;;119920;1189;24863;-62
2023/02/02 13:12:41;;;;;;;;;10.25;10.00;;;;;;;;119961;1189;24876;-61
2023/02/02 13:15:18;;;;;;;;;13.50;10.75;;;;;;;;119919;1190;25525;-61
2023/02/02 13:17:52;;;;;;;;;10.75;7.00;;;;;;;;119901;1182;25241;-59
2023/02/02 13:20:40;;;;;;;;;11.67;9.67;;;;;;;;119906;1190;25494;-58
2023/02/02 13:23:19;;;;;;;;;10.25;9.75;;;;;;;;119929;1181;24900;-60
2023/02/02 13:25:52;;;;;;;;;8.25;8.25;;;;;;;;119944;1182;25239;-61
2023/02/02 13:28:47;;;;;;;;;13.50;10.00;;;;;;;;120162;1189;24698;-61
2023/02/02 13:31:30;;;;;;;;;2.33;2.33;;;;;;;;120015;1189;24861;-60
2023/02/02 13:34:20;;;;;;;;;11.33;9.00;;;;;;;;119901;1183;25472;-61
2023/02/02 13:37:17;;;;;;;;;12.75;10.00;;;;;;;;119902;1190;25344;-60
2023/02/02 13:39:55;;;;;;;;;11.75;10.25;;;;;;;;119734;1191;25305;-62
2023/02/02 13:42:40;;;;;;;;;11.33;10.33;;;;;;;;119889;1190;25593;-60
2023/02/02 13:45:31;;;;;;;;;12.50;11.00;;;;;;;;119903;1190;25326;-60
2023/02/02 13:48:44;;;;;;;;;15.50;10.50;;;;;;;;119887;1190;25098;-60
2023/02/02 13:51:41;;;;;;;;;9.50;8.50;;;;;;;;119780;1187;25481;-62
2023/02/02 13:54:24;;;;;;;;;12.50;9.00;;;;;;;;119913;1182;25099;-62
2023/02/02 13:57:03;;;;;;;;;12.00;10.33;;;;;;;;119925;1190;25275;-60
2023/02/02 14:00:03;;;;;;;;;10.75;8.75;;;;;;;;119876;1190;25659;-60
2023/02/02 14:02:39;;;;;;;;;12.33;9.33;;;;;;;;119911;1190;25036;-61
2023/02/02 14:05:22;;;;;;;;;12.75;11.50;;;;;;;;119910;1190;25439;-61
2023/02/02 14:07:59;;;;;;;;;12.50;10.00;;;;;;;;120176;1189;25033;-60
2023/02/02 14:10:43;;;;;;;;;13.00;12.00;;;;;;;;120223;1180;25099;-60
2023/02/02 14:16:01;;;;;;;;;9.00;8.50;;;;;;;;119924;1189;25600;-61
2023/02/02 14:18:50;;;;;;;;;11.00;8.00;;;;;;;;120073;1190;25033;-61
2023/02/02 14:21:30;;;;;;;;;13.00;10.00;;;;;;;;119992;1189;24730;-61
2023/02/02 14:24:03;;;;;;;;;8.00;7.33;;;;;;;;119942;1190;24912;-61
2023/02/02 14:26:46;;;;;;;;;14.67;12.33;;;;;;;;119912;1190;24735;-61
2023/02/02 14:29:38;;;;;;;;;7.25;7.25;;;;;;;;119929;1190;25134;-61
2023/02/02 14:32:06;;;;;;;;;13.25;9.75;;;;;;;;119968;1177;25945;-61
2023/02/02 14:34:38;;;;;;;;;10.25;10.00;;;;;;;;119927;1181;25002;-60
2023/02/02 14:37:25;;;;;;;;;10.25;10.00;;;;;;;;119927;1190;25630;-61
2023/02/02 14:40:05;;;;;;;;;7.00;7.00;;;;;;;;120001;1189;25610;-60
2023/02/02 14:45:41;;;;;;;;;12.25;10.00;;;;;;;;120215;1189;25149;-60
2023/02/02 14:48:15;;;;;;;;;11.33;10.00;;;;;;;;120138;1189;25252;-61
2023/02/02 14:50:56;;;;;;;;;13.00;10.50;;;;;;;;119927;1190;25463;-60
2023/02/02 14:53:27;;;;;;;;;7.75;7.50;;;;;;;;119952;1190;25192;-61
2023/02/02 14:56:15;;;;;;;;;8.50;8.50;;;;;;;;119931;1190;24919;-61
2023/02/02 14:58:53;;;;;;;;;14.00;10.00;;;;;;;;119927;1189;25595;-61
2023/02/02 15:01:27;;;;;;;;;8.33;8.00;;;;;;;;120218;1189;25516;-61
2023/02/02 15:04:20;;;;;;;;;9.67;8.00;;;;;;;;120226;1189;25091;-60
2023/02/02 15:06:51;;;;;;;;;9.00;7.00;;;;;;;;120234;1180;25601;-60
2023/02/02 15:09:22;;;;;;;;;9.67;8.33;;;;;;;;119925;1182;25684;-61
2023/02/02 15:12:07;;;;;;;;;11.00;9.00;;;;;;;;120020;1182;25353;-60
2023/02/02 15:15:23;;;;;;;;;10.00;8.00;;;;;;;;119935;1181;24911;-60
2023/02/02 15:18:12;;;;;;;;;9.50;9.00;;;;;;;;119872;1190;25716;-62
2023/02/02 15:20:47;;;;;;;;;10.50;9.25;;;;;;;;119927;1182;25585;-60
2023/02/02 15:23:43;;;;;;;;;7.00;7.00;;;;;;;;119920;1190;25631;-60